createdAt,value
2022-09-11T00:02:06.825Z,62.36
2022-09-11T00:04:33.345Z,63.51
2022-09-11T00:07:00.026Z,63.23
2022-09-11T00:09:26.825Z,62.95
2022-09-11T00:11:53.448Z,63.04
2022-09-11T00:14:20.105Z,62.64
2022-09-11T00:16:47.166Z,63.93
2022-09-11T00:19:18.922Z,64.12
2022-09-11T00:21:46.162Z,63.21
2022-09-11T00:24:12.814Z,64.04
2022-09-11T00:26:41.094Z,64.39
2022-09-11T00:29:08.081Z,64.92
2022-09-11T00:31:34.855Z,65.06
2022-09-11T00:34:01.400Z,65.33
2022-09-11T00:36:31.529Z,64.26
2022-09-11T00:38:59.907Z,64.88
2022-09-11T00:41:39.351Z,64.99
2022-09-11T00:44:27.200Z,65.43
2022-09-11T00:46:56.754Z,65.41
2022-09-11T00:49:30.514Z,65.72
2022-09-11T00:52:08.534Z,65.47
2022-09-11T00:54:41.452Z,65.42
2022-09-11T00:57:09.495Z,65.45
2022-09-11T00:59:40.059Z,65.57
2022-09-11T01:02:12.167Z,65.60
2022-09-11T01:04:38.618Z,65.43
2022-09-11T01:07:33.964Z,65.59
2022-09-11T01:10:00.520Z,65.48
2022-09-11T01:12:57.826Z,65.34
2022-09-11T01:15:35.668Z,65.31
2022-09-11T01:18:14.991Z,65.38
2022-09-11T01:21:32.482Z,65.55
2022-09-11T01:24:23.810Z,65.43
2022-09-11T01:26:50.168Z,65.43
2022-09-11T01:29:22.723Z,65.36
2022-09-11T01:32:16.433Z,65.39
2022-09-11T01:34:57.842Z,65.40
2022-09-11T01:37:38.903Z,65.42
2022-09-11T01:40:16.547Z,65.47
2022-09-11T01:42:46.035Z,65.36
2022-09-11T01:45:17.080Z,65.30
2022-09-11T01:47:46.391Z,65.48
2022-09-11T01:50:15.414Z,65.62
2022-09-11T01:52:51.583Z,65.46
2022-09-11T01:55:22.694Z,65.68
2022-09-11T01:57:58.725Z,65.84
2022-09-11T02:00:25.299Z,65.85
2022-09-11T02:02:59.464Z,66.11
2022-09-11T02:05:56.561Z,66.18
2022-09-11T02:08:52.922Z,66.40
2022-09-11T02:11:20.614Z,66.14
2022-09-11T02:14:06.825Z,66.24
2022-09-11T02:16:59.388Z,66.16
2022-09-11T02:19:29.507Z,66.20
2022-09-11T02:21:58.462Z,66.17
2022-09-11T02:24:26.235Z,66.41
2022-09-11T02:27:01.089Z,66.36
2022-09-11T02:29:27.756Z,66.33
2022-09-11T02:31:54.554Z,66.34
2022-09-11T02:34:32.684Z,66.39
2022-09-11T02:37:26.599Z,66.42
2022-09-11T02:40:12.759Z,66.51
2022-09-11T02:42:45.492Z,66.58
2022-09-11T02:45:28.656Z,66.65
2022-09-11T02:48:15.806Z,66.50
2022-09-11T02:50:48.136Z,66.25
2022-09-11T02:53:26.694Z,66.41
2022-09-11T02:56:04.705Z,66.52
2022-09-11T02:58:34.694Z,66.43
2022-09-11T03:01:02.662Z,66.49
2022-09-11T03:03:37.424Z,66.63
2022-09-11T03:06:04.375Z,66.45
2022-09-11T03:08:32.228Z,66.41
2022-09-11T03:10:58.782Z,66.38
2022-09-11T03:13:25.193Z,66.55
2022-09-11T03:15:51.988Z,66.59
2022-09-11T03:18:18.448Z,66.77
2022-09-11T03:20:49.767Z,66.94
2022-09-11T03:23:16.226Z,66.94
2022-09-11T03:25:42.705Z,66.30
2022-09-11T03:28:09.250Z,66.32
2022-09-11T03:30:35.906Z,66.65
2022-09-11T03:33:02.645Z,66.82
2022-09-11T03:35:29.286Z,66.70
2022-09-11T03:37:55.755Z,66.59
2022-09-11T03:40:22.256Z,66.15
2022-09-11T03:42:48.795Z,66.03
2022-09-11T03:45:16.379Z,65.96
2022-09-11T03:47:42.836Z,65.79
2022-09-11T03:50:10.269Z,66.44
2022-09-11T03:52:36.978Z,66.81
2022-09-11T03:55:07.123Z,66.37
2022-09-11T03:57:34.470Z,66.46
2022-09-11T04:00:03.871Z,66.59
2022-09-11T04:02:30.356Z,66.81
2022-09-11T04:04:56.773Z,66.78
2022-09-11T04:07:23.744Z,67.39
2022-09-11T04:09:50.171Z,67.26
2022-09-11T04:12:16.717Z,67.72
2022-09-11T04:14:43.159Z,67.54
2022-09-11T04:17:09.796Z,67.09
2022-09-11T04:19:36.256Z,67.07
2022-09-11T04:22:03.957Z,67.43
2022-09-11T04:24:30.410Z,67.20
2022-09-11T04:27:00.589Z,68.01
2022-09-11T04:29:28.510Z,68.62
2022-09-11T04:31:56.142Z,68.41
2022-09-11T04:34:22.617Z,68.56
2022-09-11T04:36:49.031Z,68.24
2022-09-11T04:39:16.079Z,68.28
2022-09-11T04:41:44.168Z,69.59
2022-09-11T04:44:10.637Z,69.16
2022-09-11T04:46:37.090Z,68.76
2022-09-11T04:49:03.518Z,68.79
2022-09-11T04:51:32.728Z,68.31
2022-09-11T04:54:00.526Z,68.27
2022-09-11T04:56:29.548Z,68.09
2022-09-11T04:58:58.965Z,67.99
2022-09-11T05:01:27.387Z,68.31
2022-09-11T05:03:53.922Z,67.97
2022-09-11T05:06:20.460Z,67.93
2022-09-11T05:08:47.242Z,67.65
2022-09-11T05:11:16.361Z,67.84
2022-09-11T05:13:43.555Z,67.72
2022-09-11T05:16:12.269Z,67.55
2022-09-11T05:18:40.352Z,67.21
2022-09-11T05:21:16.663Z,67.28
2022-09-11T05:23:47.895Z,67.18
2022-09-11T05:26:16.771Z,67.15
2022-09-11T05:28:43.257Z,67.37
2022-09-11T05:31:18.031Z,67.46
2022-09-11T05:33:45.376Z,67.70
2022-09-11T05:36:13.296Z,67.38
2022-09-11T05:38:40.519Z,66.90
2022-09-11T05:41:09.389Z,66.89
2022-09-11T05:43:36.201Z,66.63
2022-09-11T05:46:03.296Z,66.92
2022-09-11T05:48:31.307Z,66.58
2022-09-11T05:51:02.777Z,67.26
2022-09-11T05:53:33.770Z,67.24
2022-09-11T05:56:14.177Z,66.77
2022-09-11T05:58:40.597Z,66.95
2022-09-11T06:01:10.165Z,66.91
2022-09-11T06:03:38.706Z,67.62
2022-09-11T06:06:08.332Z,68.61
2022-09-11T06:08:35.867Z,67.96
2022-09-11T06:11:06.607Z,67.96
2022-09-11T06:13:36.447Z,67.62
2022-09-11T06:16:03.145Z,67.04
2022-09-11T06:18:29.734Z,67.15
2022-09-11T06:21:02.775Z,67.22
2022-09-11T06:23:29.418Z,67.98
2022-09-11T06:26:03.399Z,67.08
2022-09-11T06:28:29.828Z,67.33
2022-09-11T06:30:56.353Z,66.92
2022-09-11T06:33:22.789Z,66.68
2022-09-11T06:35:59.472Z,67.03
2022-09-11T06:38:26.999Z,67.04
2022-09-11T06:40:54.237Z,65.89
2022-09-11T06:43:21.135Z,65.11
2022-09-11T06:45:48.359Z,64.85
2022-09-11T06:48:21.495Z,64.79
2022-09-11T06:50:47.898Z,64.96
2022-09-11T06:53:15.191Z,65.36
2022-09-11T06:55:41.606Z,65.87
2022-09-11T06:58:08.728Z,66.00
2022-09-11T07:00:36.619Z,66.23
2022-09-11T07:03:04.417Z,66.92
2022-09-11T07:05:31.049Z,65.94
2022-09-11T07:07:57.871Z,64.91
2022-09-11T07:10:24.647Z,65.55
2022-09-11T07:12:54.671Z,65.42
2022-09-11T07:15:21.697Z,65.45
2022-09-11T07:17:48.747Z,65.53
2022-09-11T07:20:17.085Z,65.09
2022-09-11T07:22:45.488Z,64.69
2022-09-11T07:25:12.037Z,64.59
2022-09-11T07:27:38.477Z,64.09
2022-09-11T07:30:05.458Z,63.84
2022-09-11T07:32:31.883Z,63.87
2022-09-11T07:34:58.475Z,64.11
2022-09-11T07:37:24.941Z,63.66
2022-09-11T07:39:51.481Z,64.02
2022-09-11T07:42:17.943Z,64.33
2022-09-11T07:44:45.108Z,64.61
2022-09-11T07:47:11.667Z,63.28
2022-09-11T07:49:38.097Z,62.55
2022-09-11T07:52:04.719Z,62.00
2022-09-11T07:54:31.212Z,61.65
2022-09-11T07:56:58.075Z,60.57
2022-09-11T07:59:24.825Z,59.94
2022-09-11T08:01:51.333Z,57.11
2022-09-11T08:04:17.812Z,55.66
2022-09-11T08:06:44.689Z,54.94
2022-09-11T08:09:15.059Z,53.83
2022-09-11T08:11:48.485Z,54.44
2022-09-11T08:14:17.575Z,53.47
2022-09-11T08:16:44.860Z,53.95
2022-09-11T08:19:18.189Z,55.75
2022-09-11T08:21:44.980Z,57.42
2022-09-11T08:24:17.069Z,56.66
2022-09-11T08:26:48.628Z,57.43
2022-09-11T08:29:15.572Z,57.44
2022-09-11T08:31:42.052Z,58.65
2022-09-11T08:34:10.256Z,57.17
2022-09-11T08:36:36.973Z,56.56
2022-09-11T08:39:04.018Z,56.70
2022-09-11T08:41:30.442Z,56.26
2022-09-11T08:44:02.874Z,55.38
2022-09-11T08:46:36.531Z,53.59
2022-09-11T08:49:19.242Z,54.06
2022-09-11T08:51:48.864Z,53.67
2022-09-11T08:54:33.448Z,53.92
2022-09-11T08:57:16.699Z,53.88
2022-09-11T09:00:02.582Z,54.95
2022-09-11T09:02:31.695Z,55.50
2022-09-11T09:05:00.966Z,55.21
2022-09-11T09:07:48.618Z,56.72
2022-09-11T09:10:35.310Z,56.22
2022-09-11T09:13:49.399Z,56.87
2022-09-11T09:16:43.968Z,55.17
2022-09-11T09:19:15.697Z,56.14
2022-09-11T09:21:45.245Z,56.38
2022-09-11T09:24:19.820Z,56.05
2022-09-11T09:26:52.677Z,54.79
2022-09-11T09:29:22.874Z,53.74
2022-09-11T09:32:05.633Z,53.41
2022-09-11T09:34:37.408Z,53.74
2022-09-11T09:37:17.932Z,53.10
2022-09-11T09:39:45.628Z,53.73
2022-09-11T09:42:36.816Z,54.47
2022-09-11T09:45:27.509Z,53.07
2022-09-11T09:47:53.994Z,52.59
2022-09-11T09:50:28.366Z,53.06
2022-09-11T09:53:11.448Z,52.99
2022-09-11T09:55:41.259Z,52.08
2022-09-11T09:58:07.706Z,51.27
2022-09-11T10:00:37.623Z,49.58
2022-09-11T10:03:19.673Z,49.60
2022-09-11T10:05:48.283Z,49.51
2022-09-11T10:08:33.686Z,50.62
2022-09-11T10:11:03.689Z,50.37
2022-09-11T10:13:36.913Z,50.62
2022-09-11T10:16:05.234Z,52.07
2022-09-11T10:18:36.045Z,52.22
2022-09-11T10:21:11.374Z,51.71
2022-09-11T10:23:50.246Z,50.85
2022-09-11T10:26:45.799Z,49.97
2022-09-11T10:29:17.913Z,48.82
2022-09-11T10:31:55.952Z,49.51
2022-09-11T10:34:25.311Z,49.10
2022-09-11T10:36:57.063Z,49.67
2022-09-11T10:39:26.227Z,48.80
2022-09-11T10:41:58.918Z,48.67
2022-09-11T10:44:27.399Z,48.93
2022-09-11T10:47:15.361Z,48.98
2022-09-11T10:49:42.429Z,49.14
2022-09-11T10:52:08.783Z,49.89
2022-09-11T10:54:41.309Z,48.18
2022-09-11T10:57:22.883Z,45.67
2022-09-11T11:00:16.535Z,46.17
2022-09-11T11:02:48.845Z,45.87
2022-09-11T11:05:37.302Z,47.59
2022-09-11T11:08:15.837Z,47.36
2022-09-11T11:11:03.727Z,49.12
2022-09-11T11:14:05.957Z,50.65
2022-09-11T11:16:41.772Z,50.21
2022-09-11T11:19:35.423Z,52.70
2022-09-11T11:22:24.826Z,52.89
2022-09-11T11:25:02.519Z,54.37
2022-09-11T11:27:31.645Z,54.49
2022-09-11T11:30:03.778Z,52.85
2022-09-11T11:32:59.362Z,51.06
2022-09-11T11:35:41.465Z,48.89
2022-09-11T11:38:34.344Z,50.37
2022-09-11T11:41:09.765Z,48.73
2022-09-11T11:43:40.836Z,48.51
2022-09-11T11:46:30.077Z,48.50
2022-09-11T11:48:59.711Z,49.38
2022-09-11T11:51:29.567Z,50.29
2022-09-11T11:54:20.346Z,50.33
2022-09-11T11:56:52.198Z,51.58
2022-09-11T11:59:52.076Z,46.15
2022-09-11T12:02:27.787Z,44.61
2022-09-11T12:05:02.903Z,46.33
2022-09-11T12:07:32.520Z,47.20
2022-09-11T12:10:01.474Z,47.33
2022-09-11T12:12:32.334Z,47.60
2022-09-11T12:15:08.539Z,48.09
2022-09-11T12:17:38.266Z,48.64
2022-09-11T12:20:10.652Z,47.06
2022-09-11T12:22:45.056Z,46.95
2022-09-11T12:25:32.026Z,45.44
2022-09-11T12:28:24.184Z,45.10
2022-09-11T12:31:05.425Z,46.02
2022-09-11T12:33:40.850Z,46.24
2022-09-11T12:36:44.271Z,46.18
2022-09-11T12:39:39.474Z,45.58
2022-09-11T12:42:28.346Z,46.41
2022-09-11T12:44:55.049Z,46.02
2022-09-11T12:47:24.206Z,46.43
2022-09-11T12:50:07.370Z,46.89
2022-09-11T12:52:40.200Z,46.48
2022-09-11T12:55:35.478Z,46.38
2022-09-11T12:58:06.673Z,46.72
2022-09-11T13:00:39.066Z,46.23
2022-09-11T13:03:15.211Z,46.91
2022-09-11T13:05:43.190Z,47.72
2022-09-11T13:08:21.213Z,47.73
2022-09-11T13:10:47.968Z,49.86
2022-09-11T13:13:43.918Z,48.31
2022-09-11T13:16:28.905Z,48.31
2022-09-11T13:19:13.364Z,48.74
2022-09-11T13:21:41.878Z,49.41
2022-09-11T13:24:40.665Z,50.45
2022-09-11T13:27:15.387Z,50.26
2022-09-11T13:29:43.469Z,50.14
2022-09-11T13:32:14.395Z,50.80
2022-09-11T13:34:46.293Z,50.54
2022-09-11T13:37:16.285Z,50.54
2022-09-11T13:39:44.785Z,50.65
2022-09-11T13:42:16.218Z,49.08
2022-09-11T13:44:49.147Z,48.62
2022-09-11T13:47:20.179Z,48.80
2022-09-11T13:49:48.888Z,48.20
2022-09-11T13:52:16.227Z,47.66
2022-09-11T13:54:49.162Z,48.34
2022-09-11T13:57:23.877Z,48.01
2022-09-11T14:00:02.210Z,47.63
2022-09-11T14:02:34.766Z,48.39
2022-09-11T14:05:13.763Z,48.25
2022-09-11T14:08:02.159Z,49.28
2022-09-11T14:10:33.202Z,48.10
2022-09-11T14:13:23.102Z,48.37
2022-09-11T14:15:49.501Z,48.67
2022-09-11T14:18:41.901Z,48.62
2022-09-11T14:21:39.185Z,48.21
2022-09-11T14:24:26.537Z,47.00
2022-09-11T14:26:53.946Z,47.67
2022-09-11T14:29:29.396Z,47.63
2022-09-11T14:32:21.653Z,46.85
2022-09-11T14:34:48.270Z,47.11
2022-09-11T14:37:16.671Z,48.04
2022-09-11T14:39:46.760Z,47.46
2022-09-11T14:42:21.136Z,47.52
2022-09-11T14:44:47.767Z,47.43
2022-09-11T14:47:22.894Z,47.91
2022-09-11T14:49:51.650Z,47.89
2022-09-11T14:52:20.603Z,48.57
2022-09-11T14:54:48.079Z,47.92
2022-09-11T14:57:21.088Z,48.82
2022-09-11T14:59:47.906Z,49.02
2022-09-11T15:02:17.232Z,49.67
2022-09-11T15:04:43.826Z,49.70
2022-09-11T15:07:12.514Z,50.31
2022-09-11T15:09:39.676Z,49.59
2022-09-11T15:12:08.444Z,50.57
2022-09-11T15:14:54.794Z,50.49
2022-09-11T15:17:21.476Z,50.37
2022-09-11T15:19:49.831Z,49.98
2022-09-11T15:22:16.467Z,51.28
2022-09-11T15:24:43.197Z,50.81
2022-09-11T15:27:10.254Z,51.34
2022-09-11T15:29:38.561Z,51.26
2022-09-11T15:32:06.203Z,50.78
2022-09-11T15:34:33.152Z,51.37
2022-09-11T15:37:00.279Z,51.32
2022-09-11T15:39:27.876Z,51.25
2022-09-11T15:41:55.687Z,51.53
2022-09-11T15:44:25.165Z,50.80
2022-09-11T15:46:53.404Z,50.94
2022-09-11T15:49:22.139Z,50.72
2022-09-11T15:51:49.870Z,50.76
2022-09-11T15:54:16.348Z,51.40
2022-09-11T15:56:43.745Z,52.21
2022-09-11T15:59:15.236Z,52.34
2022-09-11T16:01:43.360Z,51.94
2022-09-11T16:04:12.675Z,52.73
2022-09-11T16:06:42.354Z,53.14
2022-09-11T16:09:13.013Z,51.78
2022-09-11T16:11:40.966Z,51.77
2022-09-11T16:14:08.791Z,51.37
2022-09-11T16:16:35.510Z,51.10
2022-09-11T16:19:01.975Z,51.67
2022-09-11T16:21:28.938Z,51.39
2022-09-11T16:24:00.634Z,51.14
2022-09-11T16:26:29.001Z,51.36
2022-09-11T16:28:55.477Z,51.13
2022-09-11T16:31:21.988Z,51.72
2022-09-11T16:33:49.364Z,51.78
2022-09-11T16:36:18.379Z,51.74
2022-09-11T16:38:45.552Z,51.74
2022-09-11T16:41:18.797Z,51.98
2022-09-11T16:43:50.250Z,51.98
2022-09-11T16:46:19.643Z,51.87
2022-09-11T16:48:50.469Z,51.86
2022-09-11T16:51:20.779Z,51.94
2022-09-11T16:53:47.641Z,52.32
2022-09-11T16:56:16.810Z,52.05
2022-09-11T16:58:44.033Z,51.84
2022-09-11T17:01:14.786Z,52.19
2022-09-11T17:03:43.500Z,53.36
2022-09-11T17:06:11.443Z,53.38
2022-09-11T17:08:39.169Z,53.43
2022-09-11T17:11:09.456Z,53.17
2022-09-11T17:13:36.856Z,53.95
2022-09-11T17:16:12.655Z,54.40
2022-09-11T17:18:47.289Z,54.41
2022-09-11T17:21:14.147Z,54.01
2022-09-11T17:23:40.759Z,54.25
2022-09-11T17:26:12.695Z,54.43
2022-09-11T17:28:40.291Z,54.37
2022-09-11T17:31:09.121Z,54.95
2022-09-11T17:33:38.120Z,54.53
2022-09-11T17:36:06.406Z,54.62
2022-09-11T17:38:33.843Z,54.41
2022-09-11T17:41:03.840Z,54.43
2022-09-11T17:43:30.909Z,54.87
2022-09-11T17:46:02.362Z,55.07
2022-09-11T17:48:28.935Z,55.28
2022-09-11T17:51:13.419Z,55.51
2022-09-11T17:53:42.320Z,56.58
2022-09-11T17:56:16.513Z,56.28
2022-09-11T17:58:44.912Z,56.71
2022-09-11T18:01:16.586Z,56.99
2022-09-11T18:03:44.264Z,56.90
2022-09-11T18:06:32.572Z,57.03
2022-09-11T18:09:01.817Z,57.09
2022-09-11T18:11:29.587Z,58.34
2022-09-11T18:13:56.280Z,57.58
2022-09-11T18:16:22.872Z,58.06
2022-09-11T18:18:49.614Z,58.37
2022-09-11T18:21:16.080Z,58.44
2022-09-11T18:23:45.605Z,58.31
2022-09-11T18:26:40.038Z,58.46
2022-09-11T18:29:10.482Z,58.34
2022-09-11T18:31:40.028Z,58.47
2022-09-11T18:34:07.280Z,58.29
2022-09-11T18:36:33.766Z,58.78
2022-09-11T18:39:02.034Z,58.42
2022-09-11T18:41:31.293Z,58.70
2022-09-11T18:44:00.079Z,58.81
2022-09-11T18:46:27.323Z,59.15
2022-09-11T18:48:55.837Z,59.36
2022-09-11T18:51:22.597Z,59.40
2022-09-11T18:53:51.941Z,59.36
2022-09-11T18:56:19.753Z,59.54
2022-09-11T18:58:48.423Z,59.18
2022-09-11T19:01:18.302Z,59.50
2022-09-11T19:03:44.978Z,59.67
2022-09-11T19:06:14.474Z,59.56
2022-09-11T19:08:43.079Z,59.71
2022-09-11T19:11:10.481Z,60.13
2022-09-11T19:13:38.144Z,60.44
2022-09-11T19:16:05.361Z,60.22
2022-09-11T19:18:32.206Z,60.35
2022-09-11T19:21:10.199Z,60.19
2022-09-11T19:23:39.107Z,60.56
2022-09-11T19:26:12.920Z,60.78
2022-09-11T19:28:43.639Z,60.97
2022-09-11T19:31:13.954Z,60.95
2022-09-11T19:33:41.848Z,61.03
2022-09-11T19:36:11.801Z,61.21
2022-09-11T19:38:43.085Z,61.53
2022-09-11T19:41:12.842Z,61.67
2022-09-11T19:43:40.914Z,61.60
2022-09-11T19:46:12.950Z,61.76
2022-09-11T19:48:40.799Z,61.86
2022-09-11T19:51:21.219Z,62.09
2022-09-11T19:53:49.427Z,62.08
2022-09-11T19:56:16.703Z,62.25
2022-09-11T19:58:43.226Z,62.41
2022-09-11T20:01:15.063Z,62.35
2022-09-11T20:03:44.029Z,62.49
2022-09-11T20:06:12.240Z,62.62
2022-09-11T20:08:42.879Z,62.73
2022-09-11T20:11:12.955Z,62.82
2022-09-11T20:13:39.439Z,62.89
2022-09-11T20:16:11.762Z,62.89
2022-09-11T20:18:38.405Z,63.61
2022-09-11T20:21:07.497Z,63.19
2022-09-11T20:23:34.553Z,63.55
2022-09-11T20:26:16.313Z,64.04
2022-09-11T20:28:44.176Z,63.61
2022-09-11T20:31:25.369Z,63.76
2022-09-11T20:33:52.153Z,63.92
2022-09-11T20:36:19.557Z,63.72
2022-09-11T20:38:51.194Z,63.84
2022-09-11T20:41:17.666Z,63.87
2022-09-11T20:43:44.451Z,63.82
2022-09-11T20:46:11.459Z,64.20
2022-09-11T20:48:38.059Z,64.59
2022-09-11T20:51:07.542Z,64.65
2022-09-11T20:53:34.720Z,64.66
2022-09-11T20:56:06.863Z,64.70
2022-09-11T20:58:33.800Z,64.51
2022-09-11T21:01:00.823Z,64.39
2022-09-11T21:03:28.403Z,64.86
2022-09-11T21:05:56.075Z,64.83
2022-09-11T21:08:24.891Z,64.74
2022-09-11T21:10:51.559Z,64.76
2022-09-11T21:13:18.102Z,64.57
2022-09-11T21:15:46.166Z,64.35
2022-09-11T21:18:13.135Z,64.64
2022-09-11T21:20:40.241Z,64.67
2022-09-11T21:23:07.463Z,64.76
2022-09-11T21:25:39.479Z,64.64
2022-09-11T21:28:05.960Z,64.79
2022-09-11T21:30:32.488Z,64.75
2022-09-11T21:32:58.952Z,64.55
2022-09-11T21:35:25.415Z,64.59
2022-09-11T21:37:51.955Z,64.44
2022-09-11T21:40:18.375Z,64.29
2022-09-11T21:42:44.844Z,64.20
2022-09-11T21:45:11.223Z,64.09
2022-09-11T21:47:37.687Z,63.74
2022-09-11T21:50:06.939Z,64.06
2022-09-11T21:52:33.900Z,63.81
2022-09-11T21:55:00.458Z,63.62
2022-09-11T21:57:28.761Z,63.72
2022-09-11T21:59:58.826Z,63.50
2022-09-11T22:02:26.168Z,63.65
2022-09-11T22:04:53.272Z,63.62
2022-09-11T22:07:20.381Z,63.66
2022-09-11T22:09:48.482Z,63.50
2022-09-11T22:12:15.913Z,63.68
2022-09-11T22:14:44.320Z,63.39
2022-09-11T22:17:11.846Z,63.28
2022-09-11T22:19:38.330Z,63.25
2022-09-11T22:22:04.881Z,63.32
2022-09-11T22:24:31.585Z,63.04
2022-09-11T22:26:58.010Z,62.91
2022-09-11T22:29:24.448Z,63.07
2022-09-11T22:31:51.030Z,63.01
2022-09-11T22:34:17.785Z,63.03
2022-09-11T22:36:44.200Z,63.02
2022-09-11T22:39:10.649Z,63.17
2022-09-11T22:41:37.140Z,63.01
2022-09-11T22:44:03.982Z,62.83
2022-09-11T22:46:30.449Z,62.65
2022-09-11T22:48:56.910Z,62.57
2022-09-11T22:51:23.333Z,62.38
2022-09-11T22:53:49.861Z,62.21
2022-09-11T22:56:16.751Z,62.03
2022-09-11T22:58:43.254Z,61.91
2022-09-11T23:01:11.533Z,61.68
2022-09-11T23:03:38.213Z,61.71
2022-09-11T23:06:23.387Z,61.75
2022-09-11T23:08:49.888Z,61.95
2022-09-11T23:11:19.598Z,61.96
2022-09-11T23:13:48.702Z,61.69
2022-09-11T23:16:27.198Z,61.49
2022-09-11T23:18:55.679Z,61.61
2022-09-11T23:21:22.437Z,61.86
2022-09-11T23:23:54.640Z,61.53
2022-09-11T23:26:21.884Z,61.32
2022-09-11T23:28:48.404Z,61.52
2022-09-11T23:31:19.362Z,61.51
2022-09-11T23:33:46.392Z,61.46
2022-09-11T23:36:15.297Z,61.66
2022-09-11T23:38:46.262Z,62.00
2022-09-11T23:41:13.439Z,62.25
2022-09-11T23:43:39.867Z,62.23
2022-09-11T23:46:07.058Z,62.20
2022-09-11T23:48:33.822Z,62.41
2022-09-11T23:51:03.038Z,62.64
2022-09-11T23:53:30.363Z,62.77
2022-09-11T23:55:57.961Z,62.58
2022-09-11T23:58:24.994Z,62.83
